Antimony, UT

12:39 AM MDT on July 31, 2014 (GMT -0600)
Bryce Canyon (KBCE) Elev 7585 ft | 37.71 °N, 112.15 °W | Change Station

Current weather conditions updated 1 hour ago

Clear
Clear
56 °F
Feels Like 56 °F
N
0
Wind Variable Wind from North

Today is forecast to be nearly the same temperature as yesterday.

Today
High -- | Low -- °F
--% Chance of Precip.
Yesterday
High -- | Low -- °F
Precip. -- in
6:30 AM 8:38 PM
Waxing Crescent, 16% visible
Pressure 30.04 in
Visibility 10.0 miles
Clouds Clear
Dew Point 48 °F
Humidity 75%
Rainfall 0.00 in
Snow Depth Not available.
UV 0 out of 12
Pollen 5.10 out of 12
Air Quality Not available.
Flu Activity Not available.
METAR KBCE 310453Z AUTO 00000KT 10SM CLR 13/09 A3039 RMK AO2 SLP172 T01330089

More Conditions Fewer Conditions

Pressure 30.04 in
Visibility 10.0 miles
Clouds Clear
Dew Point 48 °F
Humidity 75%
Rainfall 0.00 in
Snow Depth Not available.
UV 0 out of 12
Pollen 5.10 out of 12
Air Quality Not available.
Flu Activity Not available.
METAR KBCE 310453Z AUTO 00000KT 10SM CLR 13/09 A3039 RMK AO2 SLP172 T01330089

More Conditions Fewer Conditions

10-Day Weather Forecast

Almanac

Astronomy

Jul. 31, 2014 Rise Set
Actual Time 6:30 AM MDT 8:38 PM MDT
Civil Twilight 6:01 AM MDT 9:07 PM MDT
Nautical Twilight 5:25 AM MDT 9:43 PM MDT
Astronomical Twilight 4:46 AM MDT 10:21 PM MDT
Moon 10:56 AM MDT 10:59 PM MDT
Length of Visible Light 15h 05m
Length of Day
14h 07m
Tomorrow will be 1m 49s shorter.
Waxing Crescent, 16% of the Moon is Illuminated
Today
Waxing Crescent
Aug 3
First Quarter
Aug 10
Full
Aug 17
Last Quarter
Aug 25
New

Today's Extremes

State Highs State Lows

Community

WunderPhotos

Upload Photos

1,739,251 photos uploaded!

Nearby

Snow Depth

Station Depth Elevation
Clayton Springs 0 in 10000 ft
Merchant Valley 0 in 8750 ft
Agua Canyon 3 in 8900 ft
Long Valley Jct 1 in 7360 ft
Box Creek 0 in 9800 ft

Earthquake Activity

City Distance Mag. Time & Date
No recent earthquake activity has been reported nearby.
Minimum magnitude displayed is 2.5.

Coastal Water Temperatures

Place Temperature
No Stations Reporting

Nearby Weather Stations

Station Location Temp. Dew Point Humidity Wind Precip. Elev Updated Type
RAWS BRYCE CANYON UT, Bryce, UT 55 °F 48 °F 76% North  at  0 mph 0.00 in / hr 7854 ft 11:23 PM MDT MADIS
RAWS FISHLAKE D4 PT #4 UT, Greenwich, UT 62 °F 47 °F 59% East  at  2 mph 0.00 in / hr 7773 ft 12:01 AM MDT MADIS
RAWS DIXIE PORTABLE #2 UT, Hatch, UT 57 °F 50 °F 77% North  at  0 mph 0.00 in / hr 7189 ft 11:39 PM MDT MADIS
MesoWest PANGUITCH , Panguitch, UT 56 °F 52 °F 86% NNE  at  2 mph 0.00 in / hr 6555 ft 11:00 PM MDT MADIS
MesoWest CIRCLEVILLE , Circleville, UT 66 °F 51 °F 60% ESE  at  5 mph 0.00 in / hr 6120 ft 11:00 PM MDT MADIS
Bengal Ranch, Circleville, UT 61.9 °F 50 °F 66% ESE  at  1.7 mph - / hr 6102 ft 12:28 AM MDT Normal
Tropic High School, Tropic, UT 68.4 °F 68 °F 98% NNW  at  5.3 mph - / hr 6388 ft 12:27 AM MDT Normal

Show More Stations Show Fewer Stations